Time;durP1;ratioP1;P1;durP2;ratioP2;P2;SDS_P1;SDS_P2;PMS_P1;PMS_P2;Temp;Humidity;BMP_temperature;BMP_pressure;BME280_temperature;BME280_humidity;BME280_pressure;Samples;Min_cycle;Max_cycle;Signal;HPM_P1;HPM_P2
2023/11/01 00:00:06;;;;;;;5.60;3.10;;;;;;;11.57;74.34;98310.16;5095542;28;20056;-48
2023/11/01 00:02:33;;;;;;;8.27;3.95;;;;;;;11.09;74.83;98310.75;5095135;28;20024;-48
2023/11/01 00:04:59;;;;;;;7.93;5.18;;;;;;;10.98;76.87;98312.22;5093852;28;20032;-48
2023/11/01 00:07:25;;;;;;;5.05;3.25;;;;;;;11.74;78.20;98310.41;5093725;28;20024;-48
2023/11/01 00:09:50;;;;;;;6.18;3.50;;;;;;;12.51;75.82;98307.34;5095108;28;20028;-48
2023/11/01 00:12:16;;;;;;;13.48;3.42;;;;;;;12.89;73.32;98292.28;5094997;28;20031;-48
2023/11/01 00:14:42;;;;;;;6.53;3.50;;;;;;;12.93;72.64;98296.88;5094726;28;20028;-48
2023/11/01 00:17:07;;;;;;;6.03;4.10;;;;;;;12.97;70.65;98299.88;5094907;28;20024;-48
2023/11/01 00:19:33;;;;;;;9.35;3.58;;;;;;;12.65;70.72;98296.66;5093489;28;20055;-48
2023/11/01 00:21:59;;;;;;;9.98;3.65;;;;;;;12.56;71.60;98293.56;5094858;28;20489;-48
2023/11/01 00:24:24;;;;;;;13.25;4.40;;;;;;;12.97;71.73;98287.50;5094794;28;20028;-48
2023/11/01 00:26:50;;;;;;;8.02;3.75;;;;;;;13.26;69.79;98286.84;5094657;28;20028;-48
2023/11/01 00:29:16;;;;;;;8.63;3.58;;;;;;;12.78;68.49;98293.88;5094962;28;20103;-48
2023/11/01 00:31:42;;;;;;;6.72;3.40;;;;;;;12.16;68.80;98292.19;5094629;28;20489;-48
2023/11/01 00:34:07;;;;;;;7.25;3.65;;;;;;;11.64;69.82;98296.97;5093274;28;20024;-48
2023/11/01 00:36:33;;;;;;;6.13;3.97;;;;;;;11.19;71.04;98291.88;5094585;28;20432;-48
2023/11/01 00:38:59;;;;;;;5.72;3.85;;;;;;;10.84;72.06;98292.31;5094452;28;20023;-48
2023/11/01 00:41:25;;;;;;;7.78;3.75;;;;;;;10.66;73.58;98300.09;5094591;28;20031;-48
2023/11/01 00:43:51;;;;;;;6.22;3.60;;;;;;;10.51;74.12;98298.56;5093939;28;20535;-48
2023/11/01 00:46:17;;;;;;;8.50;4.38;;;;;;;10.37;74.96;98284.69;5093027;28;20094;-48
2023/11/01 00:48:42;;;;;;;9.27;4.18;;;;;;;10.50;76.18;98281.22;5093012;28;20035;-48
2023/11/01 00:51:08;;;;;;;7.03;3.30;;;;;;;11.05;76.37;98277.25;5094339;28;20023;-48
2023/11/01 00:53:34;;;;;;;10.02;4.10;;;;;;;11.10;74.77;98274.78;5094497;28;20036;-48
2023/11/01 00:56:00;;;;;;;9.73;3.97;;;;;;;11.06;74.99;98270.97;5094274;28;20024;-48
2023/11/01 00:58:25;;;;;;;8.10;3.55;;;;;;;11.33;75.57;98275.00;5094086;28;20032;-48
2023/11/01 01:00:51;;;;;;;10.20;3.92;;;;;;;11.94;75.54;98257.66;5094197;28;20053;-48
2023/11/01 01:03:17;;;;;;;4.93;3.50;;;;;;;12.48;73.91;98262.28;5094122;28;20024;-48
2023/11/01 01:05:42;;;;;;;9.00;4.72;;;;;;;12.92;72.67;98261.03;5094010;28;20536;-48
2023/11/01 01:08:08;;;;;;;7.68;4.38;;;;;;;13.04;70.79;98257.59;5092535;28;20076;-48
2023/11/01 01:10:34;;;;;;;11.40;5.22;;;;;;;13.07;70.33;98246.63;5093957;28;20060;-48
2023/11/01 01:12:59;;;;;;;6.53;4.20;;;;;;;13.36;69.61;98237.88;5093872;28;20028;-48
2023/11/01 01:15:26;;;;;;;20.58;15.68;;;;;;;13.71;68.87;98233.59;5092259;28;20048;-48
2023/11/01 01:17:54;;;;;;;12.43;8.38;;;;;;;13.84;67.03;98235.19;5092385;28;20020;-48
2023/11/01 01:20:20;;;;;;;86.60;78.47;;;;;;;13.81;66.53;98228.53;5092379;28;20170;-48
2023/11/01 01:22:45;;;;;;;10.35;9.00;;;;;;;13.84;66.28;98235.97;5093627;28;20099;-48
2023/11/01 01:25:11;;;;;;;9.45;4.97;;;;;;;14.01;65.52;98217.59;5092283;28;20028;-48
2023/11/01 01:27:37;;;;;;;14.63;4.50;;;;;;;14.10;64.85;98220.66;5092275;28;20029;-48
2023/11/01 01:30:03;;;;;;;4.78;4.03;;;;;;;13.98;64.01;98215.41;5093434;28;20028;-48
2023/11/01 01:32:33;;;;;;;6.95;3.50;;;;;;;13.58;64.30;98221.44;5092159;28;20028;-48
2023/11/01 01:34:59;;;;;;;9.93;4.47;;;;;;;13.39;64.94;98213.66;5093458;28;20107;-49
2023/11/01 01:37:25;;;;;;;6.07;3.83;;;;;;;13.21;64.79;98212.97;5092041;28;20062;-48
2023/11/01 01:39:51;;;;;;;8.52;5.53;;;;;;;13.27;65.05;98215.47;5093356;28;20023;-48
2023/11/01 01:42:16;;;;;;;7.45;4.20;;;;;;;13.47;64.83;98206.47;5093200;28;20119;-48
2023/11/01 01:44:42;;;;;;;7.63;3.03;;;;;;;13.67;64.38;98201.63;5093237;28;20099;-48
2023/11/01 01:47:08;;;;;;;4.40;2.67;;;;;;;13.65;63.45;98190.50;5091827;28;20405;-48
2023/11/01 01:49:35;;;;;;;6.88;2.83;;;;;;;12.95;62.73;98188.66;5093193;28;20091;-48
2023/11/01 01:52:01;;;;;;;5.63;2.22;;;;;;;12.06;64.58;98189.34;5093329;28;20424;-48
2023/11/01 01:54:28;;;;;;;8.07;6.25;;;;;;;11.69;67.61;98181.47;5090906;28;20462;-48
2023/11/01 01:56:54;;;;;;;5.25;4.15;;;;;;;12.11;68.56;98186.03;5093047;28;20020;-48
2023/11/01 01:59:21;;;;;;;5.22;3.25;;;;;;;12.69;67.81;98177.50;5091627;28;20452;-48
2023/11/01 02:01:48;;;;;;;5.00;3.60;;;;;;;13.08;66.10;98161.28;5092945;28;20028;-48
2023/11/01 02:04:14;;;;;;;271.48;169.15;;;;;;;13.17;66.03;98173.88;5091545;28;20111;-48
2023/11/01 02:06:41;;;;;;;23.52;14.40;;;;;;;13.21;65.06;98168.16;5091507;28;20081;-48
2023/11/01 02:09:15;;;;;;;6.82;2.58;;;;;;;12.99;64.59;98158.19;5093047;28;20498;-48
2023/11/01 02:11:42;;;;;;;4.03;2.00;;;;;;;12.18;64.92;98163.88;5092776;28;20024;-48
2023/11/01 02:14:08;;;;;;;6.50;2.30;;;;;;;11.40;67.46;98146.19;5092723;28;20012;-48
2023/11/01 02:16:34;;;;;;;7.43;2.33;;;;;;;10.82;69.59;98157.06;5092306;28;20521;-48
2023/11/01 02:18:59;;;;;;;10.63;9.25;;;;;;;10.55;71.02;98152.81;5092505;28;20024;-48
2023/11/01 02:21:25;;;;;;;7.75;4.03;;;;;;;10.92;72.92;98145.03;5092602;28;20026;-48
2023/11/01 02:23:52;;;;;;;8.68;7.07;;;;;;;11.62;72.59;98137.88;5091208;28;20016;-48
2023/11/01 02:26:17;;;;;;;35.47;31.83;;;;;;;11.84;71.04;98131.13;5091038;28;20051;-47
2023/11/01 02:28:43;;;;;;;32.60;29.77;;;;;;;11.65;69.69;98127.72;5092446;28;20031;-48
2023/11/01 02:31:09;;;;;;;24.88;22.00;;;;;;;11.16;69.85;98118.97;5092305;28;20024;-48
2023/11/01 02:33:35;;;;;;;8.95;6.75;;;;;;;10.90;70.87;98120.81;5092375;28;20063;-48
2023/11/01 02:36:00;;;;;;;144.15;131.20;;;;;;;10.90;71.79;98120.03;5092322;28;20028;-48
2023/11/01 02:38:26;;;;;;;24.92;22.67;;;;;;;11.36;73.17;98116.13;5092159;28;20398;-48
2023/11/01 02:40:52;;;;;;;121.80;109.93;;;;;;;11.52;71.95;98126.03;5092176;28;20527;-48
2023/11/01 02:43:18;;;;;;;20.05;16.83;;;;;;;11.82;71.21;98122.66;5090985;28;20047;-48
2023/11/01 02:45:47;;;;;;;9.15;7.95;;;;;;;11.70;69.88;98112.09;5092163;28;20024;-48
2023/11/01 02:48:13;;;;;;;7.30;2.20;;;;;;;11.35;69.67;98104.81;5092163;28;20028;-48
2023/11/01 02:50:39;;;;;;;4.57;2.08;;;;;;;10.97;70.90;98100.56;5090803;28;20031;-48
2023/11/01 02:53:05;;;;;;;5.10;2.17;;;;;;;10.73;71.42;98107.44;5092094;28;20024;-49
2023/11/01 02:55:31;;;;;;;8.20;3.40;;;;;;;10.94;73.21;98103.63;5092030;28;20024;-48
2023/11/01 02:57:57;;;;;;;7.80;3.15;;;;;;;11.32;71.93;98105.25;5092000;28;20445;-48
2023/11/01 03:00:23;;;;;;;4.20;2.33;;;;;;;11.64;71.71;98106.91;5091987;28;20028;-48
2023/11/01 03:02:49;;;;;;;3.78;2.13;;;;;;;11.53;70.14;98101.38;5091938;28;20024;-48
2023/11/01 03:05:16;;;;;;;5.30;3.33;;;;;;;11.33;69.74;98100.81;5091718;28;20020;-48
2023/11/01 03:07:42;;;;;;;4.88;2.10;;;;;;;10.90;69.73;98096.41;5091947;28;20029;-48
2023/11/01 03:10:09;;;;;;;6.82;2.40;;;;;;;10.44;71.01;98093.16;5091866;28;20020;-49
2023/11/01 03:12:38;;;;;;;7.05;2.75;;;;;;;10.07;72.59;98086.94;5090517;28;20086;-48
2023/11/01 03:15:07;;;;;;;13.18;9.52;;;;;;;10.18;74.04;98084.44;5091555;28;20406;-49
2023/11/01 03:17:34;;;;;;;9.35;4.15;;;;;;;10.87;74.86;98081.91;5091726;28;20039;-48
2023/11/01 03:20:01;;;;;;;4.57;3.10;;;;;;;11.62;73.61;98091.38;5091812;28;20121;-48
2023/11/01 03:22:27;;;;;;;6.15;2.55;;;;;;;12.29;70.60;98079.94;5090475;28;20020;-48
2023/11/01 03:24:52;;;;;;;9.10;5.60;;;;;;;12.27;68.20;98071.47;5091754;28;20099;-48
2023/11/01 03:27:18;;;;;;;4.18;2.70;;;;;;;11.76;68.28;98065.72;5091712;28;20035;-48
2023/11/01 03:29:44;;;;;;;13.02;2.20;;;;;;;11.59;70.06;98074.22;5091758;28;20035;-48
2023/11/01 03:32:10;;;;;;;4.15;2.08;;;;;;;12.06;70.03;98076.25;5091648;28;20031;-48
2023/11/01 03:34:35;;;;;;;4.47;2.10;;;;;;;12.55;68.64;98068.19;5091705;28;20494;-48
2023/11/01 03:37:01;;;;;;;6.40;2.55;;;;;;;12.70;67.23;98063.28;5091584;28;20027;-48
2023/11/01 03:39:27;;;;;;;4.50;1.60;;;;;;;12.86;67.13;98068.88;5091545;28;20370;-48
2023/11/01 03:41:52;;;;;;;6.40;2.10;;;;;;;13.11;65.89;98053.63;5091566;28;20036;-48
2023/11/01 03:44:18;;;;;;;6.45;2.35;;;;;;;13.26;64.97;98058.41;5090265;28;20485;-48
2023/11/01 03:46:44;;;;;;;4.72;2.50;;;;;;;13.53;64.14;98063.19;5091594;28;20024;-48
2023/11/01 03:49:09;;;;;;;7.75;1.95;;;;;;;13.62;63.79;98063.59;5091529;28;20398;-48
2023/11/01 03:51:35;;;;;;;7.55;2.58;;;;;;;13.91;62.68;98064.41;5091473;28;20040;-48
2023/11/01 03:54:01;;;;;;;5.90;2.55;;;;;;;14.11;61.67;98056.81;5091474;28;20717;-48
2023/11/01 03:56:27;;;;;;;4.47;1.80;;;;;;;14.25;60.90;98045.97;5091465;28;20024;-48
2023/11/01 03:58:52;;;;;;;7.80;4.22;;;;;;;14.09;60.53;98037.00;5091411;28;20028;-48
2023/11/01 04:01:18;;;;;;;3.83;1.88;;;;;;;14.08;60.47;98035.38;5091477;28;20016;-48
2023/11/01 04:03:45;;;;;;;3.38;1.60;;;;;;;13.69;60.31;98033.41;5090097;28;20060;-48
2023/11/01 04:06:11;;;;;;;6.97;2.78;;;;;;;13.06;60.68;98023.72;5091312;28;20555;-48
2023/11/01 04:08:40;;;;;;;7.20;5.45;;;;;;;12.55;62.94;98026.88;5091411;28;20058;-48
2023/11/01 04:11:06;;;;;;;7.88;6.10;;;;;;;12.65;64.32;98022.88;5090139;28;20056;-48
2023/11/01 04:13:32;;;;;;;5.45;2.92;;;;;;;12.85;63.46;98017.25;5090036;28;20059;-47
2023/11/01 04:15:58;;;;;;;14.82;9.23;;;;;;;12.95;63.47;98007.72;5091066;28;20405;-48
2023/11/01 04:18:24;;;;;;;3.50;2.38;;;;;;;13.13;62.85;98005.97;5092950;28;20062;-48
2023/11/01 04:20:50;;;;;;;7.35;3.78;;;;;;;13.29;62.41;98009.72;5094936;28;20035;-48
2023/11/01 04:23:16;;;;;;;7.43;2.45;;;;;;;13.17;61.70;98009.75;5093625;28;20398;-48
2023/11/01 04:25:42;;;;;;;7.95;2.13;;;;;;;12.89;61.76;98013.91;5094848;28;20020;-48
2023/11/01 04:28:08;;;;;;;5.43;2.78;;;;;;;12.24;62.21;98008.81;5094784;28;20392;-48
2023/11/01 04:30:38;;;;;;;4.20;2.60;;;;;;;11.51;63.61;98013.25;5094707;28;20039;-48
2023/11/01 04:33:07;;;;;;;3.90;1.90;;;;;;;11.02;65.54;98012.47;5094876;28;20031;-48
2023/11/01 04:35:34;;;;;;;2.60;2.00;;;;;;;10.53;67.39;98010.53;5094606;28;20493;-48
2023/11/01 04:38:03;;;;;;;4.45;2.08;;;;;;;10.15;68.89;98011.44;5093158;28;20398;-48
2023/11/01 04:40:29;;;;;;;6.32;2.20;;;;;;;9.85;70.32;98015.72;5094393;28;20024;-48
2023/11/01 04:42:55;;;;;;;3.65;1.83;;;;;;;9.75;71.16;98009.09;5094542;28;20016;-48
2023/11/01 04:45:21;;;;;;;9.27;2.35;;;;;;;9.70;71.95;98005.50;5094371;28;20467;-48
2023/11/01 04:47:47;;;;;;;3.75;2.22;;;;;;;9.60;72.10;98003.38;5093203;28;20024;-49
2023/11/01 04:50:14;;;;;;;3.55;2.53;;;;;;;9.44;72.88;97999.44;5093175;28;20016;-49
2023/11/01 04:52:41;;;;;;;6.07;1.95;;;;;;;9.25;73.87;98002.94;5093142;28;20050;-48
2023/11/01 04:55:10;;;;;;;7.13;2.17;;;;;;;9.20;75.00;97998.34;5092894;28;20086;-48
2023/11/01 04:57:36;;;;;;;3.88;2.53;;;;;;;9.30;75.14;97995.28;5094154;28;20016;-48
2023/11/01 05:00:11;;;;;;;3.30;2.53;;;;;;;9.30;75.10;97990.84;5094169;28;20445;-48
2023/11/01 05:02:37;;;;;;;4.18;2.67;;;;;;;9.30;75.83;97987.41;5094388;28;20418;-48
2023/11/01 05:05:08;;;;;;;4.70;3.03;;;;;;;9.30;75.99;97987.41;5094074;28;20436;-48
2023/11/01 05:07:34;;;;;;;3.28;2.95;;;;;;;9.31;76.35;97989.81;5092824;28;20028;-48
2023/11/01 05:10:00;;;;;;;3.63;2.00;;;;;;;9.33;76.46;97986.97;5093934;28;20032;-48
2023/11/01 05:12:26;;;;;;;7.05;2.67;;;;;;;9.26;76.61;97986.22;5092610;28;20363;-48
2023/11/01 05:14:51;;;;;;;3.25;2.20;;;;;;;9.22;76.99;97983.22;5093585;28;20047;-49
2023/11/01 05:17:17;;;;;;;8.57;2.97;;;;;;;9.22;77.09;97983.22;5093736;28;20027;-48
2023/11/01 05:19:43;;;;;;;6.55;2.45;;;;;;;9.38;77.65;97980.09;5093711;28;20069;-48
2023/11/01 05:22:09;;;;;;;4.10;3.00;;;;;;;9.65;77.52;97966.84;5093699;28;20028;-48
2023/11/01 05:24:35;;;;;;;5.28;2.10;;;;;;;9.97;76.97;97969.44;5092403;28;20024;-48
2023/11/01 05:27:00;;;;;;;6.22;2.63;;;;;;;10.07;75.97;97961.09;5093578;28;20508;-48
2023/11/01 05:29:26;;;;;;;5.63;2.40;;;;;;;10.08;75.41;97952.22;5093582;28;20032;-48
2023/11/01 05:31:52;;;;;;;6.20;2.75;;;;;;;10.15;74.43;97953.75;5093549;28;20138;-48
2023/11/01 05:34:18;;;;;;;6.88;4.18;;;;;;;9.91;74.45;97952.75;5093686;28;20087;-48
2023/11/01 05:36:44;;;;;;;7.57;6.97;;;;;;;9.91;74.86;97952.75;5093406;28;20039;-48
2023/11/01 05:39:09;;;;;;;3.78;2.40;;;;;;;10.04;76.06;97943.16;5093385;28;20496;-48
2023/11/01 05:41:36;;;;;;;3.55;2.13;;;;;;;10.14;75.41;97941.69;5093343;28;20016;-48
2023/11/01 05:44:01;;;;;;;9.85;3.53;;;;;;;10.31;75.07;97934.06;5093268;28;20050;-48
2023/11/01 05:46:27;;;;;;;11.60;6.50;;;;;;;10.76;74.40;97935.63;5091979;28;20028;-48
2023/11/01 05:48:53;;;;;;;13.75;12.43;;;;;;;10.88;72.11;97939.09;5093263;28;20028;-48
2023/11/01 05:51:19;;;;;;;41.00;37.60;;;;;;;10.81;71.64;97930.53;5093157;28;20056;-48
2023/11/01 05:53:46;;;;;;;26.90;24.35;;;;;;;10.71;70.74;97936.28;5093225;28;20078;-48
2023/11/01 05:56:12;;;;;;;7.32;6.55;;;;;;;10.50;70.90;97937.53;5093027;28;20020;-48
2023/11/01 05:58:38;;;;;;;2.60;2.22;;;;;;;10.35;71.27;97944.94;5093514;28;20027;-48
2023/11/01 06:01:06;;;;;;;3.72;3.05;;;;;;;10.09;72.30;97949.38;5091695;28;20028;-48
2023/11/01 06:03:31;;;;;;;3.50;1.88;;;;;;;9.94;72.64;97951.50;5091809;28;20581;-48
2023/11/01 06:05:57;;;;;;;13.52;10.30;;;;;;;9.77;73.78;97952.03;5091544;28;20052;-48
2023/11/01 06:08:26;;;;;;;3.85;2.97;;;;;;;9.70;74.22;97955.72;5092821;28;20028;-48
2023/11/01 06:10:54;;;;;;;2.10;1.27;;;;;;;9.79;73.86;97950.00;5092838;28;20055;-48
2023/11/01 06:13:20;;;;;;;4.00;1.45;;;;;;;9.88;73.90;97949.75;5092798;28;20020;-48
2023/11/01 06:15:48;;;;;;;6.97;6.18;;;;;;;10.05;73.06;97944.78;5091135;28;20047;-48
2023/11/01 06:18:13;;;;;;;3.10;2.13;;;;;;;10.21;72.24;97944.22;5091412;28;20028;-48
2023/11/01 06:20:39;;;;;;;5.90;1.60;;;;;;;10.30;71.59;97950.03;5092650;28;20074;-48
2023/11/01 06:23:05;;;;;;;6.05;1.77;;;;;;;10.36;71.62;97949.97;5091291;28;20478;-48
2023/11/01 06:25:34;;;;;;;4.10;1.30;;;;;;;10.44;71.32;97946.25;5092551;28;20053;-48
2023/11/01 06:27:59;;;;;;;2.78;2.08;;;;;;;10.56;71.16;97951.56;5092459;28;20040;-48
2023/11/01 06:30:25;;;;;;;3.15;1.83;;;;;;;10.69;70.40;97940.16;5092465;28;20496;-48
2023/11/01 06:32:51;;;;;;;3.42;2.50;;;;;;;10.72;70.21;97947.56;5092429;28;20024;-48
2023/11/01 06:35:17;;;;;;;7.07;6.38;;;;;;;10.81;69.94;97946.28;5092340;28;20024;-48
2023/11/01 06:37:43;;;;;;;3.60;2.92;;;;;;;10.89;69.67;97953.84;5074150;28;20024;-48
2023/11/01 06:40:09;;;;;;;2.95;2.15;;;;;;;10.90;69.58;97944.94;5090626;28;20016;-48
2023/11/01 06:42:35;;;;;;;3.92;1.45;;;;;;;10.96;69.43;97949.31;5090873;28;20570;-48
2023/11/01 06:45:01;;;;;;;5.15;3.95;;;;;;;11.02;69.73;97946.81;5092232;28;20027;-48
2023/11/01 06:47:27;;;;;;;5.13;3.35;;;;;;;11.09;69.33;97940.47;5092158;28;20054;-48
2023/11/01 06:49:53;;;;;;;5.15;2.33;;;;;;;10.98;69.35;97939.38;5092152;28;20100;-48
2023/11/01 06:52:18;;;;;;;3.22;1.80;;;;;;;10.93;69.86;97939.25;5092111;28;20036;-48
2023/11/01 06:54:44;;;;;;;4.85;2.88;;;;;;;10.93;69.67;97939.25;5092117;28;20023;-48
2023/11/01 06:57:10;;;;;;;6.57;2.58;;;;;;;11.00;70.37;97945.22;5092080;28;20119;-49
2023/11/01 06:59:41;;;;;;;8.38;2.08;;;;;;;11.32;70.19;97938.97;5091856;28;20093;-48
2023/11/01 07:02:08;;;;;;;2.80;1.80;;;;;;;11.73;69.46;97942.59;5092053;28;20043;-48
2023/11/01 07:04:33;;;;;;;2.65;1.40;;;;;;;11.82;67.89;97937.84;5091990;28;20020;-48
2023/11/01 07:07:00;;;;;;;3.60;2.90;;;;;;;11.77;67.44;97939.31;5090543;28;20496;-48
2023/11/01 07:09:26;;;;;;;3.25;1.92;;;;;;;11.92;68.15;97930.22;5091951;28;20557;-48
2023/11/01 07:11:52;;;;;;;4.78;2.30;;;;;;;12.06;65.43;97933.44;5091869;28;20436;-48
2023/11/01 07:14:18;;;;;;;5.85;1.83;;;;;;;11.96;65.23;97928.72;5090830;28;20032;-48
2023/11/01 07:16:45;;;;;;;1.63;1.15;;;;;;;11.92;66.18;97927.59;5091666;28;20413;-48
2023/11/01 07:19:14;;;;;;;1.25;0.90;;;;;;;12.04;64.72;97928.38;5091742;28;20089;-48
2023/11/01 07:21:40;;;;;;;2.70;1.65;;;;;;;12.05;64.65;97929.19;5091775;28;20020;-48
2023/11/01 07:24:08;;;;;;;4.30;1.35;;;;;;;12.03;64.75;97926.78;5091684;28;20031;-48
2023/11/01 07:26:34;;;;;;;10.25;1.42;;;;;;;12.07;64.98;97930.53;5091720;28;20070;-48
2023/11/01 07:29:00;;;;;;;4.03;1.73;;;;;;;12.26;64.95;97917.31;5091761;28;20103;-48
2023/11/01 07:31:26;;;;;;;6.68;2.15;;;;;;;12.28;64.37;97920.50;5091673;28;20277;-48
2023/11/01 07:33:53;;;;;;;4.10;1.92;;;;;;;12.12;64.48;97916.72;5090359;28;20519;-48
2023/11/01 07:36:19;;;;;;;6.00;1.92;;;;;;;12.01;65.24;97920.94;5091675;28;20013;-48
2023/11/01 07:38:45;;;;;;;4.45;2.60;;;;;;;11.97;65.69;97922.44;5091629;28;20024;-48
2023/11/01 07:41:12;;;;;;;4.07;2.28;;;;;;;12.12;65.66;97927.25;5090263;28;20389;-48
2023/11/01 07:43:41;;;;;;;5.18;2.08;;;;;;;12.29;64.77;97927.34;5091665;28;20398;-48
2023/11/01 07:46:09;;;;;;;3.60;2.80;;;;;;;12.42;64.27;97936.84;5091559;28;20051;-48
2023/11/01 07:48:36;;;;;;;3.30;1.27;;;;;;;12.72;63.70;97941.97;5091618;28;20021;-48
2023/11/01 07:51:05;;;;;;;3.33;1.95;;;;;;;12.99;61.89;97935.09;5091545;28;20055;-48
2023/11/01 07:53:32;;;;;;;8.38;4.18;;;;;;;12.97;61.54;97934.53;5092211;28;20020;-48
2023/11/01 07:55:58;;;;;;;7.78;3.72;;;;;;;13.19;61.86;97929.41;5095384;28;20461;-48
2023/11/01 07:58:24;;;;;;;6.68;4.13;;;;;;;13.68;59.81;97925.53;5095356;28;20036;-48
2023/11/01 08:00:50;;;;;;;6.18;5.43;;;;;;;14.33;57.72;97917.03;5095278;28;20020;-48
2023/11/01 08:03:16;;;;;;;4.38;3.42;;;;;;;14.87;55.07;97926.97;5095181;28;20031;-48
2023/11/01 08:05:42;;;;;;;2.67;1.58;;;;;;;15.15;53.84;97909.28;5095207;28;20020;-48
2023/11/01 08:08:08;;;;;;;4.75;1.80;;;;;;;15.60;52.96;97910.78;5095104;28;20084;-48
2023/11/01 08:10:34;;;;;;;2.78;1.13;;;;;;;16.55;50.19;97907.44;5095114;28;20473;-48
2023/11/01 08:12:59;;;;;;;3.03;1.35;;;;;;;17.87;48.59;97900.84;5093742;28;20102;-48
2023/11/01 08:15:25;;;;;;;6.05;1.05;;;;;;;18.70;44.00;97901.44;5094807;28;20040;-49
2023/11/01 08:17:51;;;;;;;6.55;1.70;;;;;;;19.42;42.82;97904.53;5093849;28;20066;-46
2023/11/01 08:20:17;;;;;;;2.72;1.17;;;;;;;20.03;41.56;97911.25;5094918;28;20103;-46
2023/11/01 08:22:42;;;;;;;5.88;1.20;;;;;;;20.20;39.42;97910.00;5094951;28;20016;-46
2023/11/01 08:25:08;;;;;;;2.50;1.10;;;;;;;20.14;40.20;97906.59;5094847;28;20160;-46
2023/11/01 08:27:34;;;;;;;3.67;0.85;;;;;;;19.98;40.23;97913.97;5093520;28;20024;-46
2023/11/01 08:30:00;;;;;;;3.65;0.98;;;;;;;19.46;40.96;97912.75;5094705;28;20024;-46
2023/11/01 08:32:26;;;;;;;2.67;0.82;;;;;;;18.84;41.82;97915.75;5093372;28;20028;-46
2023/11/01 08:34:53;;;;;;;0.82;0.40;;;;;;;18.39;42.56;97917.50;5094709;28;20146;-46
2023/11/01 08:37:18;;;;;;;4.35;1.10;;;;;;;18.25;43.33;97919.09;5093311;28;20020;-46
2023/11/01 08:39:44;;;;;;;2.63;0.65;;;;;;;18.09;42.44;97916.50;5093290;28;20104;-46
2023/11/01 08:42:10;;;;;;;3.35;0.93;;;;;;;17.86;42.61;97912.53;5094492;28;20020;-46
2023/11/01 08:44:35;;;;;;;0.93;0.40;;;;;;;17.66;42.70;97897.38;5094483;28;20024;-46
2023/11/01 08:47:05;;;;;;;2.92;0.90;;;;;;;17.52;43.14;97889.13;5094402;28;20020;-46
2023/11/01 08:49:31;;;;;;;1.52;0.60;;;;;;;17.46;43.33;97907.97;5093239;28;20040;-46
2023/11/01 08:51:57;;;;;;;1.48;0.60;;;;;;;17.37;43.84;97902.41;5094318;28;20028;-46
2023/11/01 08:54:24;;;;;;;2.60;0.55;;;;;;;17.31;43.66;97904.25;5093000;28;20451;-46
2023/11/01 08:56:51;;;;;;;4.80;1.02;;;;;;;17.16;44.11;97901.56;5094183;28;20032;-46
2023/11/01 08:59:17;;;;;;;3.08;0.70;;;;;;;17.28;43.99;97888.84;5094089;28;20154;-46
2023/11/01 09:01:43;;;;;;;1.00;0.43;;;;;;;17.19;44.19;97900.28;5094421;28;20450;-46
2023/11/01 09:04:09;;;;;;;3.22;0.80;;;;;;;17.02;44.49;97900.47;5093676;28;20063;-46
2023/11/01 09:06:36;;;;;;;2.97;1.35;;;;;;;16.90;44.79;97893.56;5092731;28;20107;-46
2023/11/01 09:09:01;;;;;;;2.33;0.73;;;;;;;16.83;44.58;97882.41;5094009;28;20378;-46
2023/11/01 09:11:28;;;;;;;5.78;0.82;;;;;;;16.75;44.91;97878.38;5092652;28;20085;-46
2023/11/01 09:13:53;;;;;;;2.05;0.50;;;;;;;16.77;44.69;97860.38;5092548;28;20035;-46
2023/11/01 09:16:20;;;;;;;6.38;1.10;;;;;;;16.76;44.98;97866.72;5093666;28;20052;-45
2023/11/01 09:18:46;;;;;;;0.90;0.50;;;;;;;16.81;44.78;97850.06;5093782;28;20067;-46
2023/11/01 09:21:11;;;;;;;1.20;0.60;;;;;;;16.96;44.64;97849.31;5092488;28;20086;-46
2023/11/01 09:23:37;;;;;;;8.93;2.38;;;;;;;17.30;44.01;97856.78;5075670;28;20393;-46
2023/11/01 09:26:03;;;;;;;2.00;0.57;;;;;;;17.91;42.83;97858.66;5093655;28;20046;-46
2023/11/01 09:28:29;;;;;;;4.93;3.53;;;;;;;18.03;41.88;97848.53;5092293;28;20161;-46
2023/11/01 09:30:54;;;;;;;1.83;1.13;;;;;;;17.86;42.23;97854.13;5092335;28;20035;-46
2023/11/01 09:33:20;;;;;;;3.75;0.85;;;;;;;17.63;42.75;97849.38;5093539;28;20022;-46
2023/11/01 09:35:46;;;;;;;2.05;0.90;;;;;;;17.66;42.85;97828.38;5093422;28;20036;-46
2023/11/01 09:38:12;;;;;;;2.05;0.75;;;;;;;17.98;42.14;97822.00;5093417;28;20385;-46
2023/11/01 09:40:37;;;;;;;2.20;0.73;;;;;;;18.82;40.17;97818.75;5092036;28;20065;-46
2023/11/01 09:43:07;;;;;;;2.17;0.60;;;;;;;18.71;39.80;97818.78;5092076;28;20028;-46
2023/11/01 09:45:33;;;;;;;1.40;0.45;;;;;;;18.61;39.82;97823.34;5092021;28;20043;-46
2023/11/01 09:47:59;;;;;;;4.30;0.90;;;;;;;18.57;39.77;97820.44;5093320;28;20028;-46
2023/11/01 09:50:24;;;;;;;6.25;1.05;;;;;;;18.54;40.11;97819.13;5093179;28;20024;-46
2023/11/01 09:52:51;;;;;;;0.95;0.40;;;;;;;18.56;40.15;97822.31;5093145;28;20501;-46
2023/11/01 09:55:17;;;;;;;1.77;0.75;;;;;;;18.76;39.94;97820.63;5091831;28;20436;-46
2023/11/01 09:57:44;;;;;;;2.78;0.95;;;;;;;19.03;39.24;97819.41;5093089;28;20024;-46
2023/11/01 10:00:11;;;;;;;3.78;0.63;;;;;;;19.27;38.14;97820.28;5092955;28;20066;-46
2023/11/01 10:02:37;;;;;;;6.47;3.42;;;;;;;19.43;37.90;97815.63;5091199;28;20028;-46
2023/11/01 10:05:04;;;;;;;2.28;1.20;;;;;;;19.37;37.14;97824.72;5092948;28;20029;-46
2023/11/01 10:07:30;;;;;;;5.95;2.78;;;;;;;19.43;37.29;97814.84;5091717;28;20023;-46
2023/11/01 10:09:56;;;;;;;2.60;1.70;;;;;;;19.56;37.07;97809.69;5092773;28;20028;-46
2023/11/01 10:12:22;;;;;;;8.52;7.25;;;;;;;19.97;36.65;97803.16;5092980;28;20016;-46
2023/11/01 10:14:48;;;;;;;2.00;1.48;;;;;;;20.31;35.47;97788.94;5090984;28;20498;-47
2023/11/01 10:17:14;;;;;;;4.63;3.65;;;;;;;20.95;35.18;97786.75;5092244;28;20089;-46
2023/11/01 10:19:42;;;;;;;128.50;94.00;;;;;;;21.82;34.41;97753.25;5092835;28;20107;-46
2023/11/01 10:22:12;;;;;;;21.33;14.23;;;;;;;22.48;32.29;97753.81;5092571;28;20024;-46
2023/11/01 10:24:40;;;;;;;20.15;18.05;;;;;;;22.03;32.80;97763.53;5092626;28;20024;-46
2023/11/01 10:27:07;;;;;;;25.75;22.65;;;;;;;21.25;33.46;97772.13;5092513;28;20495;-46
2023/11/01 10:29:43;;;;;;;12.15;9.95;;;;;;;20.48;35.04;97762.59;5092433;28;20024;-46
2023/11/01 10:32:10;;;;;;;21.48;10.25;;;;;;;20.06;36.03;97763.38;5092465;28;20024;-46
2023/11/01 10:34:36;;;;;;;25.00;18.33;;;;;;;19.86;36.13;97772.38;5107882;28;20134;-46
2023/11/01 10:37:08;;;;;;;107.70;95.57;;;;;;;19.63;36.65;97781.94;5091028;28;20099;-46
2023/11/01 10:39:37;;;;;;;25.98;22.85;;;;;;;19.40;37.45;97764.84;5092359;28;20035;-46
2023/11/01 10:42:04;;;;;;;2.90;2.28;;;;;;;19.41;37.10;97771.75;5092304;28;20016;-46
2023/11/01 10:44:30;;;;;;;3.03;1.75;;;;;;;19.25;37.81;97773.75;5092356;28;20024;-46
2023/11/01 10:46:57;;;;;;;3.00;1.38;;;;;;;19.14;37.66;97765.06;5092249;28;20047;-46
2023/11/01 10:49:24;;;;;;;3.92;1.35;;;;;;;19.47;37.70;97774.09;5074103;28;20031;-46
2023/11/01 10:51:52;;;;;;;4.80;1.70;;;;;;;19.69;37.35;97738.22;5092155;28;20089;-46
2023/11/01 10:54:18;;;;;;;1.73;0.68;;;;;;;19.60;36.98;97755.88;5090807;28;20143;-46
2023/11/01 10:56:46;;;;;;;2.50;1.23;;;;;;;19.39;37.66;97739.31;5092048;28;20082;-46
2023/11/01 10:59:38;;;;;;;3.10;0.88;;;;;;;19.22;38.21;97739.75;5090676;28;20035;-46
2023/11/01 11:02:22;;;;;;;1.45;0.60;;;;;;;19.05;38.64;97740.94;5091974;28;20028;-46
2023/11/01 11:05:10;;;;;;;1.50;0.70;;;;;;;18.93;39.03;97727.19;5092019;28;20382;-46
2023/11/01 11:07:52;;;;;;;2.67;0.50;;;;;;;18.80;39.39;97739.28;5092062;28;20032;-46
2023/11/01 11:10:27;;;;;;;1.67;0.60;;;;;;;18.63;39.89;97736.94;5091913;28;20043;-46
2023/11/01 11:13:25;;;;;;;4.05;0.55;;;;;;;18.46;40.22;97715.28;5092227;28;20431;-46
2023/11/01 11:15:56;;;;;;;2.50;0.70;;;;;;;18.29;40.99;97743.00;5057531;28;20067;-46
2023/11/01 11:18:24;;;;;;;2.15;0.90;;;;;;;18.24;41.26;97721.78;5091790;28;20071;-46
2023/11/01 11:20:51;;;;;;;2.30;0.60;;;;;;;18.25;40.75;97752.59;5090508;28;20035;-46
2023/11/01 11:23:30;;;;;;;3.47;0.70;;;;;;;18.16;41.28;97725.78;5090503;28;20032;-46
2023/11/01 11:25:58;;;;;;;1.15;0.43;;;;;;;18.09;41.41;97722.66;5090731;28;20104;-46
2023/11/01 11:28:46;;;;;;;1.90;0.50;;;;;;;18.06;41.71;97730.38;5094128;28;20585;-46